createdAt,value
2018-07-26T00:01:43.087Z,30.00
2018-07-26T00:04:10.754Z,29.90
2018-07-26T00:06:38.405Z,30.00
2018-07-26T00:09:08.357Z,30.00
2018-07-26T00:11:36.004Z,30.00
2018-07-26T00:14:03.733Z,30.00
2018-07-26T00:16:31.384Z,30.00
2018-07-26T00:18:59.042Z,30.00
2018-07-26T00:21:26.690Z,29.90
2018-07-26T00:23:54.343Z,29.90
2018-07-26T00:26:22.029Z,29.90
2018-07-26T00:28:49.754Z,29.90
2018-07-26T00:31:17.454Z,29.90
2018-07-26T00:33:45.103Z,29.90
2018-07-26T00:36:12.784Z,29.90
2018-07-26T00:38:40.508Z,30.00
2018-07-26T00:41:08.167Z,30.00
2018-07-26T00:43:35.816Z,29.90
2018-07-26T00:46:03.499Z,30.10
2018-07-26T00:48:31.196Z,30.10
2018-07-26T00:50:58.883Z,30.00
2018-07-26T00:53:26.592Z,29.90
2018-07-26T00:55:54.270Z,29.80
2018-07-26T00:58:21.938Z,29.80
2018-07-26T01:00:49.661Z,29.80
2018-07-26T01:03:17.325Z,29.80
2018-07-26T01:05:45.038Z,29.90
2018-07-26T01:08:12.714Z,29.70
2018-07-26T01:10:40.383Z,29.80
2018-07-26T01:13:08.046Z,29.80
2018-07-26T01:15:35.714Z,29.80
2018-07-26T01:18:03.406Z,29.70
2018-07-26T01:20:31.058Z,29.50
2018-07-26T01:22:58.812Z,29.50
2018-07-26T01:25:26.505Z,29.40
2018-07-26T01:27:54.265Z,29.40
2018-07-26T01:30:22.346Z,29.50
2018-07-26T01:32:50.020Z,29.40
2018-07-26T01:35:17.692Z,29.40
2018-07-26T01:40:13.138Z,29.10
2018-07-26T01:43:32.180Z,29.00
2018-07-26T01:45:59.857Z,29.00
2018-07-26T01:48:27.547Z,28.80
2018-07-26T01:50:55.212Z,28.70
2018-07-26T01:53:22.866Z,28.70
2018-07-26T01:55:50.540Z,28.70
2018-07-26T01:58:18.208Z,28.80
2018-07-26T02:00:45.899Z,28.70
2018-07-26T02:03:13.560Z,28.80
2018-07-26T02:05:41.528Z,28.60
2018-07-26T02:08:09.189Z,28.50
2018-07-26T02:10:36.876Z,28.60
2018-07-26T02:13:04.539Z,28.40
2018-07-26T02:15:32.208Z,28.50
2018-07-26T02:17:59.893Z,28.40
2018-07-26T02:20:27.559Z,28.30
2018-07-26T02:22:55.262Z,28.40
2018-07-26T02:25:22.986Z,28.40
2018-07-26T02:27:50.679Z,28.40
2018-07-26T02:30:18.341Z,28.40
2018-07-26T02:32:46.168Z,28.40
2018-07-26T02:35:13.829Z,28.50
2018-07-26T02:37:41.506Z,28.60
2018-07-26T02:40:09.163Z,28.40
2018-07-26T02:42:36.829Z,28.50
2018-07-26T02:45:04.637Z,28.40
2018-07-26T02:47:32.302Z,28.40
2018-07-26T02:49:59.990Z,28.50
2018-07-26T02:52:27.675Z,28.70
2018-07-26T02:54:55.322Z,28.80
2018-07-26T02:57:23.010Z,28.50
2018-07-26T02:59:50.689Z,30.10
2018-07-26T03:02:18.433Z,28.60
2018-07-26T03:04:46.106Z,31.30
2018-07-26T03:07:13.834Z,28.70
2018-07-26T03:09:41.527Z,28.70
2018-07-26T03:12:09.219Z,28.60
2018-07-26T03:14:43.580Z,28.50
2018-07-26T03:17:14.872Z,28.40
2018-07-26T03:19:43.561Z,28.20
2018-07-26T03:22:11.207Z,28.30
2018-07-26T03:24:38.876Z,28.20
2018-07-26T03:29:34.549Z,28.40
2018-07-26T03:32:02.213Z,28.50
2018-07-26T03:34:29.897Z,28.40
2018-07-26T03:36:57.569Z,28.40
2018-07-26T03:39:25.241Z,28.30
2018-07-26T03:41:52.954Z,28.40
2018-07-26T03:44:21.100Z,28.20
2018-07-26T03:46:48.781Z,27.90
2018-07-26T03:49:16.442Z,26.90
2018-07-26T03:51:44.118Z,28.10
2018-07-26T03:54:11.802Z,28.10
2018-07-26T03:56:39.493Z,28.00
2018-07-26T03:59:07.149Z,28.10
2018-07-26T04:01:35.249Z,28.10
2018-07-26T04:04:03.110Z,28.00
2018-07-26T04:06:30.798Z,28.00
2018-07-26T04:09:29.237Z,27.90
2018-07-26T04:11:57.007Z,27.80
2018-07-26T04:14:25.457Z,27.90
2018-07-26T04:16:53.319Z,28.00
2018-07-26T04:19:21.016Z,28.00
2018-07-26T04:21:48.721Z,28.00
2018-07-26T04:24:16.822Z,27.80
2018-07-26T04:26:44.593Z,27.90
2018-07-26T04:29:12.279Z,27.90
2018-07-26T04:31:39.938Z,27.90
2018-07-26T04:34:07.634Z,28.00
2018-07-26T04:36:35.354Z,27.90
2018-07-26T04:39:06.222Z,27.80
2018-07-26T04:41:33.906Z,27.60
2018-07-26T04:44:01.619Z,27.60
2018-07-26T04:46:29.284Z,27.60
2018-07-26T04:48:57.072Z,27.70
2018-07-26T04:51:24.654Z,27.70
2018-07-26T04:53:52.401Z,27.60
2018-07-26T04:56:20.094Z,27.70
2018-07-26T04:58:47.744Z,27.80
2018-07-26T05:01:15.402Z,27.80
2018-07-26T05:03:43.069Z,27.80
2018-07-26T05:06:10.713Z,27.70
2018-07-26T05:08:38.341Z,27.80
2018-07-26T05:11:06.170Z,27.80
2018-07-26T05:13:33.857Z,28.10
2018-07-26T05:16:01.517Z,28.30
2018-07-26T05:18:29.204Z,28.20
2018-07-26T05:20:56.849Z,28.10
2018-07-26T05:23:24.505Z,28.30
2018-07-26T05:25:52.220Z,28.30
2018-07-26T05:28:19.871Z,28.50
2018-07-26T05:30:47.591Z,28.60
2018-07-26T05:33:15.251Z,28.70
2018-07-26T05:35:42.930Z,28.80
2018-07-26T05:38:10.590Z,28.80
2018-07-26T05:40:38.307Z,28.90
2018-07-26T05:43:06.019Z,28.70
2018-07-26T05:45:33.671Z,28.80
2018-07-26T05:48:01.432Z,28.70
2018-07-26T05:50:29.177Z,28.80
2018-07-26T05:52:56.900Z,28.90
2018-07-26T05:55:24.630Z,28.70
2018-07-26T05:57:52.388Z,29.00
2018-07-26T06:00:20.051Z,28.90
2018-07-26T06:02:47.759Z,29.10
2018-07-26T06:05:15.451Z,29.10
2018-07-26T06:07:43.153Z,29.20
2018-07-26T06:10:10.858Z,29.20
2018-07-26T06:12:38.569Z,29.40
2018-07-26T06:17:36.100Z,29.50
2018-07-26T06:20:06.554Z,29.60
2018-07-26T06:22:34.231Z,29.50
2018-07-26T06:25:01.923Z,29.30
2018-07-26T06:27:29.570Z,30.20
2018-07-26T06:29:57.219Z,29.50
2018-07-26T06:32:24.914Z,29.50
2018-07-26T06:34:52.630Z,29.70
2018-07-26T06:37:20.294Z,30.00
2018-07-26T06:39:47.974Z,30.20
2018-07-26T06:42:15.605Z,30.30
2018-07-26T06:44:43.280Z,30.40
2018-07-26T06:47:11.456Z,30.50
2018-07-26T06:49:39.083Z,30.50
2018-07-26T06:52:06.944Z,30.50
2018-07-26T06:54:34.629Z,30.50
2018-07-26T06:57:02.302Z,30.80
2018-07-26T06:59:29.951Z,31.40
2018-07-26T07:01:57.636Z,31.30
2018-07-26T07:04:25.300Z,31.20
2018-07-26T07:06:52.981Z,31.20
2018-07-26T07:09:20.653Z,31.40
2018-07-26T07:11:48.328Z,31.60
2018-07-26T07:14:16.005Z,31.40
2018-07-26T07:16:43.673Z,31.70
2018-07-26T07:19:11.514Z,32.00
2018-07-26T07:21:39.165Z,32.10
2018-07-26T07:24:06.881Z,32.20
2018-07-26T07:26:34.551Z,32.50
2018-07-26T07:29:02.233Z,32.40
2018-07-26T07:31:29.915Z,32.60
2018-07-26T07:33:57.622Z,32.00
2018-07-26T07:36:25.369Z,32.40
2018-07-26T07:38:53.329Z,32.70
2018-07-26T07:41:20.977Z,32.60
2018-07-26T07:43:48.665Z,32.60
2018-07-26T07:46:16.632Z,32.60
2018-07-26T07:48:44.342Z,32.90
2018-07-26T07:51:12.016Z,33.40
2018-07-26T07:53:39.701Z,33.60
2018-07-26T07:56:07.445Z,33.90
2018-07-26T07:58:35.124Z,33.90
2018-07-26T08:01:02.859Z,34.40
2018-07-26T08:03:30.526Z,34.70
2018-07-26T08:05:58.240Z,35.50
2018-07-26T08:08:25.941Z,36.30
2018-07-26T08:10:53.682Z,36.10
2018-07-26T08:13:21.412Z,36.40
2018-07-26T08:15:49.109Z,36.70
2018-07-26T08:18:16.874Z,36.80
2018-07-26T08:20:44.608Z,37.20
2018-07-26T08:23:12.299Z,37.50
2018-07-26T08:25:40.053Z,37.40
2018-07-26T08:28:07.813Z,36.50
2018-07-26T08:30:35.518Z,36.30
2018-07-26T08:33:03.230Z,36.60
2018-07-26T08:35:30.915Z,36.70
2018-07-26T08:40:26.443Z,37.50
2018-07-26T08:42:54.433Z,38.20
2018-07-26T08:45:22.138Z,38.00
2018-07-26T08:47:49.939Z,38.50
2018-07-26T08:50:17.681Z,38.80
2018-07-26T08:52:45.386Z,38.70
2018-07-26T08:55:13.122Z,39.00
2018-07-26T08:57:40.811Z,39.40
2018-07-26T09:00:09.029Z,39.80
2018-07-26T09:02:36.925Z,39.70
2018-07-26T09:05:05.044Z,39.90
2018-07-26T09:07:32.734Z,39.80
2018-07-26T09:12:28.190Z,39.60
2018-07-26T09:14:56.005Z,40.00
2018-07-26T09:17:23.926Z,40.30
2018-07-26T09:19:51.646Z,40.60
2018-07-26T09:22:19.386Z,40.90
2018-07-26T09:24:47.091Z,41.60
2018-07-26T09:27:14.782Z,41.70
2018-07-26T09:29:42.473Z,42.10
2018-07-26T09:32:10.170Z,42.20
2018-07-26T09:34:37.862Z,42.10
2018-07-26T09:37:05.578Z,42.20
2018-07-26T09:39:33.615Z,41.80
2018-07-26T09:42:01.401Z,42.40
2018-07-26T09:44:29.370Z,42.60
2018-07-26T09:46:57.076Z,42.90
2018-07-26T09:49:24.837Z,43.20
2018-07-26T09:51:52.517Z,43.50
2018-07-26T09:54:20.208Z,43.50
2018-07-26T09:56:47.893Z,43.90
2018-07-26T09:59:15.653Z,43.90
2018-07-26T10:01:43.329Z,43.90
2018-07-26T10:04:10.979Z,44.10
2018-07-26T10:06:38.643Z,44.30
2018-07-26T10:09:09.194Z,44.30
2018-07-26T10:11:36.930Z,44.40
2018-07-26T10:14:04.664Z,44.50
2018-07-26T10:16:32.388Z,44.40
2018-07-26T10:19:00.072Z,44.40
2018-07-26T10:21:27.771Z,44.50
2018-07-26T10:23:55.450Z,44.60
2018-07-26T10:26:23.141Z,44.50
2018-07-26T10:28:52.025Z,44.80
2018-07-26T10:31:19.737Z,44.40
2018-07-26T10:33:47.403Z,44.80
2018-07-26T10:36:15.071Z,45.30
2018-07-26T10:38:42.769Z,45.40
2018-07-26T10:41:10.454Z,45.50
2018-07-26T10:43:38.121Z,44.60
2018-07-26T10:46:05.777Z,44.40
2018-07-26T10:48:33.429Z,44.20
2018-07-26T10:51:01.323Z,44.60
2018-07-26T10:53:29.007Z,45.10
2018-07-26T10:55:56.715Z,45.60
2018-07-26T10:58:24.368Z,46.00
2018-07-26T11:00:52.074Z,45.90
2018-07-26T11:03:20.349Z,46.20
2018-07-26T11:05:48.010Z,46.30
2018-07-26T11:08:15.666Z,46.30
2018-07-26T11:10:43.305Z,46.80
2018-07-26T11:13:10.976Z,47.00
2018-07-26T11:15:38.660Z,46.80
2018-07-26T11:18:06.425Z,47.20
2018-07-26T11:20:34.122Z,46.90
2018-07-26T11:23:01.819Z,46.10
2018-07-26T11:25:29.568Z,46.30
2018-07-26T11:27:57.255Z,46.90
2018-07-26T11:30:24.997Z,46.80
2018-07-26T11:32:52.682Z,46.30
2018-07-26T11:35:20.382Z,46.10
2018-07-26T11:37:48.146Z,45.90
2018-07-26T11:40:15.785Z,46.70
2018-07-26T11:42:43.496Z,47.40
2018-07-26T11:45:11.196Z,47.90
2018-07-26T11:47:39.499Z,48.30
2018-07-26T11:50:08.833Z,48.70
2018-07-26T11:52:36.660Z,48.90
2018-07-26T11:55:04.574Z,48.80
2018-07-26T11:57:32.284Z,49.20
2018-07-26T12:00:00.262Z,49.60
2018-07-26T12:02:28.031Z,49.90
2018-07-26T12:04:55.708Z,49.70
2018-07-26T12:07:23.422Z,49.70
2018-07-26T12:09:51.154Z,50.00
2018-07-26T12:12:18.922Z,49.90
2018-07-26T12:14:46.712Z,49.70
2018-07-26T12:17:14.382Z,49.80
2018-07-26T12:22:09.853Z,49.90
2018-07-26T12:24:37.527Z,50.20
2018-07-26T12:27:05.254Z,50.00
2018-07-26T12:29:33.158Z,48.70
2018-07-26T12:32:00.899Z,48.10
2018-07-26T12:34:28.623Z,47.40
2018-07-26T12:36:56.751Z,47.10
2018-07-26T12:39:24.474Z,47.90
2018-07-26T12:41:52.194Z,48.50
2018-07-26T12:44:19.984Z,49.10
2018-07-26T12:46:47.727Z,49.30
2018-07-26T12:49:15.417Z,49.50
2018-07-26T12:51:43.109Z,48.60
2018-07-26T12:54:10.834Z,48.20
2018-07-26T12:56:38.579Z,48.10
2018-07-26T12:59:06.280Z,47.80
2018-07-26T13:01:34.075Z,47.70
2018-07-26T13:04:01.761Z,47.80
2018-07-26T13:06:29.474Z,47.90
2018-07-26T13:08:57.194Z,48.20
2018-07-26T13:11:24.878Z,48.90
2018-07-26T13:13:52.546Z,48.70
2018-07-26T13:16:20.323Z,48.90
2018-07-26T13:18:48.053Z,49.00
2018-07-26T13:21:15.772Z,48.70
2018-07-26T13:23:43.478Z,48.70
2018-07-26T13:26:11.209Z,48.80
2018-07-26T13:28:38.945Z,48.60
2018-07-26T13:31:06.697Z,48.70
2018-07-26T13:33:34.385Z,49.20
2018-07-26T13:36:02.101Z,49.20
2018-07-26T13:38:29.841Z,49.30
2018-07-26T13:43:25.296Z,48.80
2018-07-26T13:45:53.000Z,49.00
2018-07-26T13:48:20.736Z,49.30
2018-07-26T13:50:48.778Z,49.20
2018-07-26T13:53:16.468Z,48.20
2018-07-26T13:55:44.201Z,48.50
2018-07-26T13:58:11.969Z,48.90
2018-07-26T14:00:39.710Z,48.70
2018-07-26T14:03:07.406Z,48.50
2018-07-26T14:05:35.090Z,48.20
2018-07-26T14:10:30.598Z,47.90
2018-07-26T14:12:58.274Z,47.70
2018-07-26T14:15:26.056Z,47.00
2018-07-26T14:17:53.743Z,47.10
2018-07-26T14:20:21.433Z,47.20
2018-07-26T14:22:49.175Z,46.60
2018-07-26T14:25:17.039Z,47.00
2018-07-26T14:27:44.755Z,47.60
2018-07-26T14:30:12.482Z,48.00
2018-07-26T14:32:40.172Z,47.90
2018-07-26T14:35:07.877Z,47.70
2018-07-26T14:37:35.632Z,47.40
2018-07-26T14:40:04.144Z,47.20
2018-07-26T14:42:31.871Z,47.40
2018-07-26T14:44:59.615Z,47.60
2018-07-26T14:49:55.078Z,46.90
2018-07-26T14:52:22.759Z,47.20
2018-07-26T14:54:50.494Z,47.60
2018-07-26T14:57:18.195Z,47.10
2018-07-26T14:59:45.877Z,47.20
2018-07-26T15:02:13.573Z,47.70
2018-07-26T15:04:41.254Z,47.70
2018-07-26T15:09:36.621Z,48.70
2018-07-26T15:12:04.355Z,48.80
2018-07-26T15:14:32.068Z,49.10
2018-07-26T15:16:59.844Z,48.90
2018-07-26T15:19:27.593Z,48.00
2018-07-26T15:21:55.286Z,48.00
2018-07-26T15:24:23.083Z,48.20
2018-07-26T15:26:50.850Z,47.90
2018-07-26T15:31:46.326Z,46.40
2018-07-26T15:34:14.056Z,46.20
2018-07-26T15:36:41.723Z,46.30
2018-07-26T15:39:10.416Z,46.10
2018-07-26T15:44:10.645Z,45.60
2018-07-26T15:46:38.494Z,45.10
2018-07-26T15:49:06.483Z,44.70
2018-07-26T15:51:34.244Z,44.10
2018-07-26T15:54:01.875Z,43.90
2018-07-26T15:56:29.662Z,44.30
2018-07-26T15:58:57.398Z,44.70
2018-07-26T16:01:25.103Z,45.00
2018-07-26T16:03:52.862Z,45.00
2018-07-26T16:06:20.651Z,44.70
2018-07-26T16:08:48.367Z,44.90
2018-07-26T16:11:16.186Z,45.10
2018-07-26T16:13:44.736Z,45.10
2018-07-26T16:16:12.605Z,45.30
2018-07-26T16:18:40.362Z,45.00
2018-07-26T16:21:08.101Z,45.30
2018-07-26T16:23:35.837Z,45.60
2018-07-26T16:26:04.579Z,45.80
2018-07-26T16:28:33.782Z,46.40
2018-07-26T16:31:01.535Z,46.20
2018-07-26T16:33:29.291Z,45.70
2018-07-26T16:35:57.011Z,45.70
2018-07-26T16:38:24.720Z,46.30
2018-07-26T16:40:52.508Z,46.10
2018-07-26T16:45:48.221Z,46.60
2018-07-26T16:48:15.998Z,46.70
2018-07-26T16:50:43.706Z,46.70
2018-07-26T16:53:11.384Z,46.30
2018-07-26T16:55:39.094Z,46.20
2018-07-26T16:58:06.799Z,45.70
2018-07-26T17:03:02.642Z,45.90
2018-07-26T17:05:30.384Z,45.90
2018-07-26T17:07:58.201Z,46.00
2018-07-26T17:10:25.980Z,46.20
2018-07-26T17:12:53.678Z,45.70
2018-07-26T17:15:21.430Z,45.30
2018-07-26T17:17:49.220Z,44.70
2018-07-26T17:20:17.097Z,44.70
2018-07-26T17:22:44.807Z,44.50
2018-07-26T17:25:12.513Z,44.50
2018-07-26T17:27:40.336Z,44.30
2018-07-26T17:32:35.869Z,43.70
2018-07-26T17:35:03.665Z,43.50
2018-07-26T17:37:31.345Z,43.40
2018-07-26T17:39:59.005Z,43.40
2018-07-26T17:42:26.727Z,43.30
2018-07-26T17:44:54.463Z,43.20
2018-07-26T17:47:22.168Z,43.20
2018-07-26T17:49:49.876Z,43.00
2018-07-26T17:52:17.549Z,42.60
2018-07-26T17:54:45.253Z,42.50
2018-07-26T17:57:12.949Z,42.30
2018-07-26T17:59:40.686Z,42.10
2018-07-26T18:02:08.396Z,42.10
2018-07-26T18:04:36.120Z,42.40
2018-07-26T18:07:04.123Z,41.70
2018-07-26T18:09:31.847Z,41.70
2018-07-26T18:11:59.598Z,41.50
2018-07-26T18:14:27.289Z,41.30
2018-07-26T18:16:55.015Z,40.70
2018-07-26T18:19:22.689Z,40.60
2018-07-26T18:21:50.536Z,40.70
2018-07-26T18:24:19.482Z,41.00
2018-07-26T18:26:47.165Z,41.10
2018-07-26T18:29:14.864Z,41.00
2018-07-26T18:31:42.761Z,40.90
2018-07-26T18:34:10.257Z,40.90
2018-07-26T18:36:37.967Z,40.50
2018-07-26T18:39:09.193Z,40.40
2018-07-26T18:41:36.909Z,40.30
2018-07-26T18:44:05.175Z,40.20
2018-07-26T18:46:32.704Z,40.30
2018-07-26T18:49:00.362Z,40.20
2018-07-26T18:51:28.124Z,39.80
2018-07-26T18:53:55.801Z,39.00
2018-07-26T18:56:23.453Z,38.80
2018-07-26T18:58:51.187Z,38.90
2018-07-26T19:01:18.849Z,37.90
2018-07-26T19:03:46.682Z,37.30
2018-07-26T19:06:14.363Z,37.00
2018-07-26T19:11:09.810Z,37.70
2018-07-26T19:13:37.484Z,37.50
2018-07-26T19:16:06.370Z,37.80
2018-07-26T19:18:34.290Z,37.70
2018-07-26T19:21:02.011Z,37.80
2018-07-26T19:23:29.890Z,37.80
2018-07-26T19:25:57.605Z,39.40
2018-07-26T19:28:25.309Z,37.80
2018-07-26T19:30:52.995Z,37.80
2018-07-26T19:33:20.694Z,37.80
2018-07-26T19:35:48.433Z,38.20
2018-07-26T19:38:16.335Z,38.00
2018-07-26T19:40:44.028Z,38.10
2018-07-26T19:43:11.679Z,38.20
2018-07-26T19:45:39.390Z,38.20
2018-07-26T19:48:07.123Z,37.90
2018-07-26T19:50:34.807Z,37.80
2018-07-26T19:55:30.417Z,37.70
2018-07-26T19:57:58.103Z,37.50
2018-07-26T20:00:25.842Z,37.60
2018-07-26T20:02:53.567Z,37.60
2018-07-26T20:05:21.328Z,37.60
2018-07-26T20:07:49.297Z,37.60
2018-07-26T20:10:17.086Z,37.60
2018-07-26T20:12:44.824Z,37.60
2018-07-26T20:15:12.571Z,37.60
2018-07-26T20:17:40.264Z,37.50
2018-07-26T20:20:10.155Z,37.20
2018-07-26T20:22:38.059Z,37.00
2018-07-26T20:25:05.780Z,36.70
2018-07-26T20:27:33.534Z,36.70
2018-07-26T20:30:01.270Z,36.80
2018-07-26T20:32:29.034Z,36.80
2018-07-26T20:34:56.722Z,39.40
2018-07-26T20:37:24.647Z,36.90
2018-07-26T20:39:52.372Z,36.80
2018-07-26T20:42:20.098Z,36.90
2018-07-26T20:44:47.778Z,36.40
2018-07-26T20:47:15.501Z,36.70
2018-07-26T20:49:43.189Z,36.80
2018-07-26T20:52:11.346Z,36.80
2018-07-26T20:54:39.110Z,36.80
2018-07-26T20:57:07.671Z,36.80
2018-07-26T21:02:06.564Z,36.40
2018-07-26T21:04:34.410Z,36.50
2018-07-26T21:07:02.086Z,36.60
2018-07-26T21:09:29.812Z,36.60
2018-07-26T21:11:57.514Z,36.60
2018-07-26T21:14:25.215Z,36.50
2018-07-26T21:16:52.970Z,36.40
2018-07-26T21:21:48.517Z,36.30
2018-07-26T21:24:16.191Z,36.30
2018-07-26T21:26:43.905Z,36.20
2018-07-26T21:29:11.614Z,36.20
2018-07-26T21:31:39.292Z,36.10
2018-07-26T21:34:07.013Z,36.20
2018-07-26T21:36:34.729Z,36.30
2018-07-26T21:39:02.598Z,36.10
2018-07-26T21:41:30.354Z,36.20
2018-07-26T21:43:58.082Z,36.10
2018-07-26T21:46:25.846Z,36.10
2018-07-26T21:48:53.529Z,36.00
2018-07-26T21:51:21.201Z,36.10
2018-07-26T21:53:48.898Z,36.00
2018-07-26T21:56:16.561Z,36.30
2018-07-26T22:01:11.946Z,35.80
2018-07-26T22:03:39.654Z,35.80
2018-07-26T22:06:07.394Z,35.70
2018-07-26T22:08:35.187Z,35.70
2018-07-26T22:11:02.876Z,38.20
2018-07-26T22:13:30.599Z,35.70
2018-07-26T22:15:58.559Z,35.60
2018-07-26T22:18:26.196Z,35.70
2018-07-26T22:20:53.942Z,35.60
2018-07-26T22:23:21.955Z,35.60
2018-07-26T22:25:50.190Z,35.60
2018-07-26T22:28:18.468Z,35.40
2018-07-26T22:30:46.817Z,35.70
2018-07-26T22:33:14.526Z,35.70
2018-07-26T22:35:42.606Z,35.80
2018-07-26T22:38:12.430Z,35.80
2018-07-26T22:40:40.319Z,35.60
2018-07-26T22:43:08.085Z,35.60
2018-07-26T22:45:36.337Z,35.40
2018-07-26T22:48:04.085Z,35.60
2018-07-26T22:50:31.830Z,35.60
2018-07-26T22:52:59.575Z,35.50
2018-07-26T22:55:27.409Z,35.50
2018-07-26T22:57:55.102Z,35.20
2018-07-26T23:00:22.802Z,34.90
2018-07-26T23:02:50.514Z,34.90
2018-07-26T23:05:18.335Z,34.70
2018-07-26T23:07:46.056Z,34.70
2018-07-26T23:10:13.780Z,34.40
2018-07-26T23:12:41.517Z,34.40
2018-07-26T23:15:10.359Z,34.20
2018-07-26T23:17:38.542Z,33.90
2018-07-26T23:20:07.294Z,33.80
2018-07-26T23:22:35.098Z,33.60
2018-07-26T23:25:02.865Z,33.60
2018-07-26T23:27:30.575Z,33.30
2018-07-26T23:29:58.285Z,33.20
2018-07-26T23:32:26.045Z,33.00
2018-07-26T23:34:53.783Z,33.20
2018-07-26T23:37:21.485Z,33.10
2018-07-26T23:39:49.195Z,32.80
2018-07-26T23:42:16.892Z,32.90
2018-07-26T23:44:44.586Z,32.70
2018-07-26T23:47:12.267Z,32.60
2018-07-26T23:49:39.941Z,32.70
2018-07-26T23:52:07.649Z,32.50
2018-07-26T23:54:35.329Z,32.70
2018-07-26T23:57:03.028Z,32.70
2018-07-26T23:59:30.731Z,32.70
